Time;durP1;ratioP1;P1;durP2;ratioP2;P2;SDS_P1;SDS_P2;PMS_P1;PMS_P2;Temp;Humidity;BMP_temperature;BMP_pressure;BME280_temperature;BME280_humidity;BME280_pressure;Samples;Min_cycle;Max_cycle;Signal;HPM_P1;HPM_P2
2022/06/02 00:00:12;;;;;;;6.75;2.67;;;;;;;22.46;49.20;99850.72;4956402;29;20062;-65
2022/06/02 00:03:03;;;;;;;6.88;2.30;;;;;;;22.46;49.22;99855.31;4954902;28;20051;-67
2022/06/02 00:05:52;;;;;;;4.80;2.45;;;;;;;22.47;48.97;99848.88;4955664;28;20438;-68
2022/06/02 00:08:54;;;;;;;3.47;1.95;;;;;;;22.48;48.88;99859.47;4966622;28;20105;-66
2022/06/02 00:11:34;;;;;;;3.60;2.75;;;;;;;22.49;48.90;99854.94;4955312;28;20031;-67
2022/06/02 00:14:12;;;;;;;3.33;2.17;;;;;;;22.49;48.85;99854.94;4955737;28;20046;-68
2022/06/02 00:16:56;;;;;;;5.00;2.08;;;;;;;22.49;48.89;99844.97;4955673;28;20031;-67
2022/06/02 00:19:43;;;;;;;3.90;2.00;;;;;;;22.50;48.72;99857.41;4955818;29;20406;-65
2022/06/02 00:22:24;;;;;;;3.67;2.20;;;;;;;22.51;48.63;99859.09;4968893;28;20405;-67
2022/06/02 00:25:10;;;;;;;6.00;2.20;;;;;;;22.51;48.70;99858.25;4955395;28;20090;-67
2022/06/02 00:27:55;;;;;;;3.33;1.80;;;;;;;22.51;48.51;99864.47;4955630;28;20113;-67
2022/06/02 00:30:49;;;;;;;8.10;2.42;;;;;;;22.51;48.53;99864.47;4955507;29;20038;-67
2022/06/02 00:33:32;;;;;;;6.65;2.10;;;;;;;22.53;48.76;99861.59;4950912;28;20536;-66
2022/06/02 00:36:24;;;;;;;4.78;2.63;;;;;;;22.53;48.49;99858.88;4955293;28;20023;-64
2022/06/02 00:38:50;;;;;;;13.25;2.10;;;;;;;22.54;48.71;99852.47;4958038;28;20060;-66
2022/06/02 00:42:09;;;;;;;4.45;2.22;;;;;;;22.54;48.69;99853.31;4959772;28;20031;-65
2022/06/02 00:44:44;;;;;;;4.90;2.17;;;;;;;22.54;48.64;99845.22;4883337;29;20032;-65
2022/06/02 00:47:28;;;;;;;3.60;2.00;;;;;;;22.55;48.58;99846.91;4859042;29;20052;-69
2022/06/02 00:50:05;;;;;;;5.03;2.10;;;;;;;22.57;48.67;99837.78;4909558;29;20074;-68
2022/06/02 00:52:51;;;;;;;4.88;2.72;;;;;;;22.57;48.52;99844.00;4946814;28;20035;-68
2022/06/02 00:58:57;;;;;;;11.75;2.20;;;;;;;22.56;48.64;99831.53;4951733;28;20062;-65
2022/06/02 01:01:33;;;;;;;4.13;1.80;;;;;;;22.58;48.45;99842.13;4951281;28;20038;-69
2022/06/02 01:04:00;;;;;;;7.32;2.13;;;;;;;22.57;48.66;99843.19;4953745;29;20066;-71
2022/06/02 01:06:50;;;;;;;4.55;2.22;;;;;;;22.58;48.78;99853.75;4954121;28;20036;-67
2022/06/02 01:09:21;;;;;;;3.65;2.17;;;;;;;22.55;48.50;99849.59;4954293;29;20126;-65
2022/06/02 01:11:58;;;;;;;5.25;2.40;;;;;;;22.55;48.49;99848.75;4954291;28;20097;-69
2022/06/02 01:14:30;;;;;;;5.95;2.38;;;;;;;22.54;48.59;99849.78;4954335;29;20067;-67
2022/06/02 01:17:15;;;;;;;3.95;2.10;;;;;;;22.54;48.52;99847.06;4953933;28;20043;-69
2022/06/02 01:20:11;;;;;;;4.32;2.40;;;;;;;22.52;48.49;99855.38;4954004;29;20132;-65
2022/06/02 01:23:04;;;;;;;6.10;2.65;;;;;;;22.51;48.43;99851.00;4953916;28;20031;-67
2022/06/02 01:25:58;;;;;;;4.20;2.20;;;;;;;22.50;48.43;99846.63;4954350;29;20035;-69
2022/06/02 01:28:42;;;;;;;5.25;1.98;;;;;;;22.49;48.47;99836.06;4926774;29;20398;-68
2022/06/02 01:31:13;;;;;;;3.63;2.40;;;;;;;22.47;48.43;99836.22;4954041;28;20035;-66
2022/06/02 01:34:06;;;;;;;3.75;2.38;;;;;;;22.49;48.60;99839.56;4953878;29;20039;-68
2022/06/02 01:36:44;;;;;;;3.67;2.05;;;;;;;22.49;48.51;99839.56;4954412;28;20038;-67
2022/06/02 01:39:12;;;;;;;3.45;2.28;;;;;;;22.50;48.29;99835.03;4955040;29;20154;-66
2022/06/02 01:41:58;;;;;;;3.13;2.10;;;;;;;22.48;48.36;99829.00;4954661;28;20126;-66
2022/06/02 01:44:26;;;;;;;4.30;2.10;;;;;;;22.48;48.40;99835.19;4954723;29;20110;-68
2022/06/02 01:47:01;;;;;;;3.78;2.25;;;;;;;22.48;48.21;99840.59;4954689;28;20158;-69
2022/06/02 01:49:45;;;;;;;3.58;2.03;;;;;;;22.49;48.22;99836.88;4955137;29;20042;-66
2022/06/02 01:52:35;;;;;;;5.22;2.10;;;;;;;22.51;48.31;99836.66;4954417;28;20412;-68
2022/06/02 01:55:09;;;;;;;4.55;2.28;;;;;;;22.49;48.31;99839.56;4954469;29;20039;-66
2022/06/02 01:57:40;;;;;;;3.10;2.03;;;;;;;22.50;48.14;99832.34;4954307;28;20062;-67
2022/06/02 02:00:10;;;;;;;3.50;1.60;;;;;;;22.49;48.18;99836.88;4954265;29;20082;-67
2022/06/02 02:02:48;;;;;;;5.47;2.05;;;;;;;22.48;48.22;99832.50;4954230;28;20078;-68
2022/06/02 02:05:49;;;;;;;4.05;2.33;;;;;;;22.49;48.14;99836.06;4954556;29;20066;-67
2022/06/02 02:08:19;;;;;;;4.63;2.22;;;;;;;22.48;48.19;99837.06;4955633;28;20051;-69
2022/06/02 02:11:06;;;;;;;4.28;2.00;;;;;;;22.49;48.07;99831.47;4957967;28;20130;-67
2022/06/02 02:13:55;;;;;;;3.95;2.30;;;;;;;22.48;48.16;99837.06;4958169;29;20128;-68
2022/06/02 02:17:04;;;;;;;4.32;2.60;;;;;;;22.49;48.24;99827.97;4957965;28;20031;-68
2022/06/02 02:20:08;;;;;;;4.50;2.20;;;;;;;22.47;48.21;99830.84;4958431;29;20039;-68
2022/06/02 02:22:54;;;;;;;6.47;2.55;;;;;;;22.46;48.35;99831.03;4957808;28;20592;-68
2022/06/02 02:25:34;;;;;;;3.55;2.20;;;;;;;22.45;48.23;99832.06;4944349;29;20547;-66
2022/06/02 02:28:14;;;;;;;4.70;2.10;;;;;;;22.47;48.49;99830.84;4958071;29;20514;-69
2022/06/02 02:30:46;;;;;;;4.65;2.70;;;;;;;22.45;48.33;99822.09;4958003;28;20027;-66
2022/06/02 02:33:33;;;;;;;5.03;2.38;;;;;;;22.46;48.20;99825.66;4957797;29;20600;-69
2022/06/02 02:36:24;;;;;;;5.63;2.30;;;;;;;22.45;48.24;99822.09;4957747;28;20114;-67
2022/06/02 02:39:08;;;;;;;3.25;2.25;;;;;;;22.45;48.21;99823.97;4957916;29;20043;-68
2022/06/02 02:41:41;;;;;;;4.25;2.28;;;;;;;22.49;48.25;99819.88;4957717;28;20754;-68
2022/06/02 02:44:28;;;;;;;4.55;2.65;;;;;;;22.50;48.18;99818.84;4957640;29;20065;-67
2022/06/02 02:47:06;;;;;;;4.90;2.30;;;;;;;22.51;48.26;99821.34;4957444;28;20053;-67
2022/06/02 02:49:40;;;;;;;3.67;2.50;;;;;;;22.53;48.19;99819.28;4957708;29;20030;-68
2022/06/02 02:52:17;;;;;;;3.20;2.35;;;;;;;22.55;47.92;99809.16;4957591;28;20133;-69
2022/06/02 02:54:59;;;;;;;3.20;2.50;;;;;;;22.55;47.82;99782.19;4957376;29;20515;-67
2022/06/02 02:57:35;;;;;;;4.13;2.17;;;;;;;22.59;47.81;99792.56;4957449;28;20449;-67
2022/06/02 03:00:19;;;;;;;4.38;2.13;;;;;;;22.63;47.71;99792.00;4957202;29;20499;-67
2022/06/02 03:02:53;;;;;;;5.07;2.80;;;;;;;22.66;47.89;99788.06;4956834;28;20047;-66
2022/06/02 03:05:26;;;;;;;5.25;2.45;;;;;;;22.70;47.80;99786.66;4957423;29;20039;-69
2022/06/02 03:07:57;;;;;;;5.10;2.53;;;;;;;22.78;47.58;99786.50;4957230;28;20082;-69
2022/06/02 03:10:37;;;;;;;5.75;2.58;;;;;;;22.93;47.58;99791.84;4957008;29;20074;-69
2022/06/02 03:13:17;;;;;;;8.75;2.88;;;;;;;23.14;47.17;99795.50;4957233;29;20089;-68
2022/06/02 03:15:48;;;;;;;4.25;2.22;;;;;;;23.37;46.72;99789.03;4957036;28;20042;-69
2022/06/02 03:18:38;;;;;;;3.90;1.80;;;;;;;23.61;46.56;99787.69;4956897;28;20035;-70
2022/06/02 03:21:06;;;;;;;4.70;2.40;;;;;;;23.92;45.87;99781.81;4957002;28;20039;-68
2022/06/02 03:23:50;;;;;;;3.67;2.03;;;;;;;24.20;45.50;99775.47;4956938;29;20051;-68
2022/06/02 03:26:34;;;;;;;5.50;2.55;;;;;;;24.43;45.12;99778.84;4956888;28;20039;-70
2022/06/02 03:29:38;;;;;;;3.38;2.08;;;;;;;24.54;45.00;99786.34;4957235;29;20035;-70
2022/06/02 03:32:24;;;;;;;4.40;2.20;;;;;;;24.58;44.71;99789.44;4917565;29;20473;-68
2022/06/02 03:35:25;;;;;;;7.13;2.30;;;;;;;24.54;44.57;99791.75;4956583;29;20138;-70
2022/06/02 03:38:05;;;;;;;4.35;2.08;;;;;;;24.50;44.88;99794.03;4956708;28;20061;-67
2022/06/02 03:40:45;;;;;;;6.67;2.27;;;;;;;24.49;44.77;99802.34;4956683;29;20080;-68
2022/06/02 03:43:51;;;;;;;6.23;1.80;;;;;;;24.44;44.93;99797.56;4956464;29;20270;-69
2022/06/02 03:46:47;;;;;;;4.55;1.80;;;;;;;24.48;44.66;99801.53;4953344;28;20654;-69
2022/06/02 03:49:24;;;;;;;5.53;2.53;;;;;;;24.61;44.54;99810.69;4956316;29;20043;-67
2022/06/02 03:52:12;;;;;;;3.55;2.00;;;;;;;24.72;44.10;99806.56;4956106;28;20109;-66
2022/06/02 03:54:55;;;;;;;3.70;1.90;;;;;;;24.73;44.33;99810.94;4956181;29;20030;-67
2022/06/02 03:57:33;;;;;;;3.75;1.85;;;;;;;24.67;44.10;99802.56;4956261;28;20053;-68
2022/06/02 04:00:07;;;;;;;6.25;2.55;;;;;;;24.59;44.45;99804.63;4956067;29;20126;-70
2022/06/02 04:02:47;;;;;;;3.10;1.63;;;;;;;24.51;44.55;99813.78;4955734;28;20048;-67
2022/06/02 04:05:47;;;;;;;3.63;1.95;;;;;;;24.42;44.64;99818.56;4956290;29;20046;-67
2022/06/02 04:08:23;;;;;;;5.65;2.00;;;;;;;24.32;44.55;99810.88;4956122;29;20035;-69
2022/06/02 04:10:48;;;;;;;5.13;1.67;;;;;;;24.28;44.50;99815.00;4955775;28;20566;-68
2022/06/02 04:13:39;;;;;;;3.60;1.83;;;;;;;24.28;45.03;99816.84;4955890;29;20111;-67
2022/06/02 04:16:16;;;;;;;5.38;2.13;;;;;;;24.23;45.21;99812.06;4955589;28;20035;-67
2022/06/02 04:18:57;;;;;;;3.50;1.80;;;;;;;24.22;45.23;99818.50;4956610;29;20035;-68
2022/06/02 04:21:58;;;;;;;4.40;2.55;;;;;;;24.22;45.12;99813.97;4955614;28;20035;-67
2022/06/02 04:24:45;;;;;;;4.63;2.05;;;;;;;24.25;45.21;99820.81;4913251;29;20399;-68
2022/06/02 04:27:59;;;;;;;7.13;2.05;;;;;;;24.41;44.68;99818.78;4956393;28;20035;-70
2022/06/02 04:30:37;;;;;;;4.82;1.60;;;;;;;24.55;44.53;99816.94;4926696;28;20051;-66
2022/06/02 04:33:33;;;;;;;5.68;1.60;;;;;;;24.68;44.49;99815.06;4955836;29;20031;-68
2022/06/02 04:36:26;;;;;;;3.95;1.55;;;;;;;24.92;43.73;99814.69;4951703;28;20046;-69
2022/06/02 04:39:22;;;;;;;4.55;1.80;;;;;;;25.20;43.38;99811.75;4955674;29;20075;-69
2022/06/02 04:42:16;;;;;;;4.30;1.80;;;;;;;25.44;42.84;99820.28;4955557;28;20039;-67
2022/06/02 04:45:04;;;;;;;3.10;1.92;;;;;;;25.63;42.52;99817.72;4955899;29;20038;-68
2022/06/02 04:47:38;;;;;;;4.85;1.92;;;;;;;25.77;42.47;99816.63;4955709;28;20109;-67
2022/06/02 04:50:30;;;;;;;3.45;1.92;;;;;;;25.90;42.10;99826.56;4955538;29;20118;-68
2022/06/02 04:53:17;;;;;;;5.85;2.10;;;;;;;26.01;41.99;99822.38;4955317;29;20038;-66
2022/06/02 04:56:09;;;;;;;2.88;1.67;;;;;;;26.10;41.58;99820.25;4955284;28;20039;-69
2022/06/02 04:59:03;;;;;;;3.35;1.80;;;;;;;26.16;41.52;99812.09;4954999;29;20039;-67
2022/06/02 05:01:38;;;;;;;2.22;1.35;;;;;;;26.23;41.44;99813.97;4955093;28;20082;-69
2022/06/02 05:04:43;;;;;;;2.33;1.48;;;;;;;26.29;41.41;99810.34;4954874;29;20055;-66
2022/06/02 05:07:27;;;;;;;3.40;1.58;;;;;;;26.32;41.30;99796.38;4954781;28;20038;-67
2022/06/02 05:10:11;;;;;;;2.90;1.83;;;;;;;26.36;41.32;99808.44;4954799;29;20039;-65
2022/06/02 05:13:01;;;;;;;4.35;1.75;;;;;;;26.38;41.19;99809.06;4954744;28;20550;-65
2022/06/02 05:16:03;;;;;;;2.60;1.47;;;;;;;26.40;41.01;99797.97;4936048;29;20043;-68
2022/06/02 05:19:04;;;;;;;6.30;1.55;;;;;;;26.39;41.04;99794.47;4935925;29;20043;-68
2022/06/02 05:22:15;;;;;;;3.25;1.42;;;;;;;26.39;41.07;99797.16;4935568;29;20035;-69
2022/06/02 05:25:14;;;;;;;7.47;1.70;;;;;;;26.39;41.22;99791.75;4935901;29;20050;-67
2022/06/02 05:27:45;;;;;;;3.72;2.13;;;;;;;26.38;41.08;99792.78;4935743;29;20291;-68
2022/06/02 05:30:30;;;;;;;7.70;2.30;;;;;;;26.37;41.20;99787.56;4936251;29;20086;-69
2022/06/02 05:33:20;;;;;;;2.67;1.85;;;;;;;26.35;41.16;99790.50;4935698;29;20122;-68
2022/06/02 05:36:39;;;;;;;4.15;1.75;;;;;;;26.31;41.24;99797.41;4947777;28;20078;-67
2022/06/02 05:39:29;;;;;;;3.38;2.10;;;;;;;26.29;41.33;99791.38;4877070;29;20052;-70
2022/06/02 05:42:10;;;;;;;3.88;2.00;;;;;;;26.25;41.20;99790.16;4954738;28;20074;-68
2022/06/02 05:44:54;;;;;;;2.53;1.15;;;;;;;26.22;41.43;99785.19;4954673;29;20442;-70
2022/06/02 05:47:41;;;;;;;5.10;2.25;;;;;;;26.20;41.55;99782.66;4954612;28;20035;-69
2022/06/02 05:50:12;;;;;;;3.13;1.60;;;;;;;26.17;41.56;99788.53;4954415;29;20087;-68
2022/06/02 05:53:05;;;;;;;4.82;1.20;;;;;;;26.15;41.49;99785.22;4954807;28;20038;-70
2022/06/02 05:55:55;;;;;;;3.80;2.33;;;;;;;26.12;41.40;99791.88;4954680;29;20046;-68
2022/06/02 05:58:21;;;;;;;2.60;1.55;;;;;;;26.11;41.53;99784.78;4954752;29;20130;-69
2022/06/02 06:01:11;;;;;;;2.75;1.20;;;;;;;26.09;41.58;99786.88;4954192;28;20094;-67
2022/06/02 06:04:04;;;;;;;2.95;1.63;;;;;;;26.06;41.58;99776.47;4954107;29;20055;-69
2022/06/02 06:07:09;;;;;;;2.13;1.55;;;;;;;26.02;41.68;99775.22;4954168;28;20077;-69
2022/06/02 06:09:59;;;;;;;3.40;1.80;;;;;;;25.98;41.95;99774.00;4937625;29;20479;-69
2022/06/02 06:12:46;;;;;;;4.55;1.92;;;;;;;25.97;41.81;99772.31;4954184;28;20051;-69
2022/06/02 06:15:25;;;;;;;2.83;1.48;;;;;;;25.92;41.96;99767.56;4954229;29;20048;-69
2022/06/02 06:18:15;;;;;;;3.38;1.50;;;;;;;25.89;41.91;99782.38;4954365;28;20462;-67
2022/06/02 06:21:13;;;;;;;4.93;1.73;;;;;;;25.85;41.88;99772.19;4954632;28;20538;-70
2022/06/02 06:23:51;;;;;;;2.65;1.27;;;;;;;25.79;42.08;99771.19;4954318;29;20034;-69
2022/06/02 06:26:28;;;;;;;2.55;1.42;;;;;;;25.75;42.16;99770.75;4954051;28;20031;-68
2022/06/02 06:29:11;;;;;;;3.20;1.40;;;;;;;25.71;42.31;99769.56;4954138;29;20035;-69
2022/06/02 06:31:36;;;;;;;4.10;2.05;;;;;;;25.67;42.58;99776.44;4953918;28;20081;-67
2022/06/02 06:34:41;;;;;;;3.85;1.85;;;;;;;25.66;42.65;99771.25;4954283;29;20039;-68
2022/06/02 06:37:27;;;;;;;2.50;1.48;;;;;;;25.59;42.52;99763.97;4912342;29;20127;-68
2022/06/02 06:40:07;;;;;;;2.45;1.73;;;;;;;25.57;42.51;99774.19;4934626;29;20046;-69
2022/06/02 06:42:38;;;;;;;5.78;1.80;;;;;;;25.56;42.48;99769.81;4934951;29;20452;-70
2022/06/02 06:45:29;;;;;;;2.38;1.60;;;;;;;25.54;42.75;99762.94;4934768;29;20074;-68
2022/06/02 06:48:01;;;;;;;3.28;1.45;;;;;;;25.51;42.80;99757.94;4934682;29;20039;-69
2022/06/02 06:50:36;;;;;;;2.53;1.50;;;;;;;25.49;42.68;99760.88;4934946;29;20395;-68
2022/06/02 06:53:17;;;;;;;2.30;1.48;;;;;;;25.46;42.93;99764.00;4934973;29;20094;-67
2022/06/02 06:56:01;;;;;;;1.60;1.40;;;;;;;25.44;42.73;99766.09;4937855;29;20115;-70
2022/06/02 06:58:52;;;;;;;3.85;1.40;;;;;;;25.42;42.77;99760.06;4938087;29;20039;-69
2022/06/02 07:01:35;;;;;;;5.28;2.10;;;;;;;25.39;43.05;99771.28;4938336;29;20031;-67
2022/06/02 07:04:17;;;;;;;2.42;1.85;;;;;;;25.37;43.20;99766.09;4938051;29;20534;-70
2022/06/02 07:07:15;;;;;;;4.00;2.13;;;;;;;25.35;43.09;99776.31;4938244;29;20043;-68
2022/06/02 07:09:50;;;;;;;2.58;1.45;;;;;;;25.32;43.58;99779.44;4937877;29;20175;-70
2022/06/02 07:15:37;;;;;;;4.35;1.67;;;;;;;25.29;43.46;99769.84;4954463;29;20038;-69
2022/06/02 07:18:33;;;;;;;2.53;1.70;;;;;;;25.28;43.47;99776.31;4956861;29;20122;-69
2022/06/02 07:21:22;;;;;;;4.63;1.98;;;;;;;25.27;43.55;99792.78;4957065;28;20039;-68
2022/06/02 07:24:24;;;;;;;2.88;2.03;;;;;;;25.26;43.66;99791.94;4956765;29;20027;-70
2022/06/02 07:27:05;;;;;;;2.40;1.80;;;;;;;25.24;43.54;99791.31;4957527;28;20069;-68
2022/06/02 07:29:54;;;;;;;2.35;1.63;;;;;;;25.24;43.75;99788.59;4956646;29;20047;-70
2022/06/02 07:32:28;;;;;;;2.20;1.80;;;;;;;25.24;43.77;99793.19;4956957;28;20078;-71
2022/06/02 07:35:19;;;;;;;4.13;1.80;;;;;;;25.24;43.56;99799.44;4956521;29;20031;-70
2022/06/02 07:37:57;;;;;;;2.90;1.80;;;;;;;25.23;43.68;99792.34;4956456;28;20122;-67
2022/06/02 07:41:01;;;;;;;2.85;1.30;;;;;;;25.21;43.64;99788.22;4956441;29;20050;-68
2022/06/02 07:44:00;;;;;;;4.18;1.80;;;;;;;25.22;43.50;99798.00;4879017;29;20043;-68
2022/06/02 07:46:41;;;;;;;3.17;1.83;;;;;;;25.19;43.73;99793.00;4956641;28;20050;-70
2022/06/02 07:49:15;;;;;;;3.60;1.70;;;;;;;25.19;43.58;99793.84;4956431;29;20031;-67
2022/06/02 07:51:50;;;;;;;6.00;2.10;;;;;;;25.20;43.79;99795.50;4956297;28;20114;-70
2022/06/02 07:54:24;;;;;;;2.70;1.67;;;;;;;25.21;43.76;99799.03;4956490;29;20439;-70
2022/06/02 07:57:18;;;;;;;3.55;1.73;;;;;;;25.20;43.94;99784.69;4956375;28;20542;-69
2022/06/02 07:59:49;;;;;;;6.38;2.28;;;;;;;25.19;43.53;99785.72;4956376;29;20066;-70
2022/06/02 08:02:33;;;;;;;3.22;2.20;;;;;;;25.19;43.54;99788.44;4956016;28;20518;-69
2022/06/02 08:05:22;;;;;;;2.42;1.45;;;;;;;25.18;43.76;99792.19;4955643;28;20498;-67
2022/06/02 08:07:59;;;;;;;3.58;2.00;;;;;;;25.18;43.64;99785.91;4956059;28;20027;-70
2022/06/02 08:11:03;;;;;;;3.00;1.73;;;;;;;25.17;43.96;99778.84;4956242;29;20035;-68
2022/06/02 08:13:44;;;;;;;3.45;2.13;;;;;;;25.14;43.69;99780.09;4916585;29;20035;-69
2022/06/02 08:16:10;;;;;;;;;;;;;;;25.06;43.91;99788.44;4956437;28;20061;-69
2022/06/02 08:19:06;;;;;;;4.03;1.45;;;;;;;25.08;43.82;99794.47;4955762;29;20366;-67
2022/06/02 08:21:43;;;;;;;2.55;1.55;;;;;;;25.10;43.77;99789.66;4956057;28;20031;-67
2022/06/02 08:24:38;;;;;;;3.75;1.92;;;;;;;25.11;44.00;99785.94;4955942;29;20031;-69
2022/06/02 08:27:40;;;;;;;8.23;3.17;;;;;;;25.11;43.61;99796.75;4952603;28;20039;-70
2022/06/02 08:30:18;;;;;;;5.53;2.17;;;;;;;25.11;44.02;99785.94;4887214;29;20627;-68
2022/06/02 08:33:07;;;;;;;4.53;1.83;;;;;;;25.11;43.88;99791.34;4955425;28;20523;-68
2022/06/02 08:35:47;;;;;;;1.88;1.48;;;;;;;25.10;43.84;99785.09;4955496;28;20131;-69
2022/06/02 08:38:21;;;;;;;3.13;1.70;;;;;;;25.10;43.85;99789.66;4955791;29;20043;-68
2022/06/02 08:41:01;;;;;;;2.92;1.60;;;;;;;25.10;43.96;99793.22;4955393;28;20042;-67
2022/06/02 08:43:43;;;;;;;2.35;1.40;;;;;;;25.11;43.80;99791.34;4955551;29;20061;-70
2022/06/02 08:46:20;;;;;;;3.38;1.80;;;;;;;25.10;43.81;99795.09;4955473;28;20090;-68
2022/06/02 08:49:25;;;;;;;2.90;1.67;;;;;;;25.10;43.74;99787.81;4955233;29;20035;-66
2022/06/02 08:52:19;;;;;;;3.58;2.05;;;;;;;25.09;43.70;99788.84;4955104;28;20046;-70
2022/06/02 08:55:27;;;;;;;3.33;1.67;;;;;;;25.08;43.75;99789.91;4955443;29;20118;-67
2022/06/02 08:58:37;;;;;;;2.53;1.38;;;;;;;25.08;43.85;99797.16;4954991;28;20031;-69
2022/06/02 09:01:37;;;;;;;2.30;1.33;;;;;;;25.09;43.58;99793.41;4925680;28;20043;-70
2022/06/02 09:04:35;;;;;;;3.15;1.42;;;;;;;25.08;43.63;99783.63;4955612;29;20047;-69
2022/06/02 09:07:26;;;;;;;2.88;1.60;;;;;;;25.08;43.82;99787.19;4954025;28;20035;-65
2022/06/02 09:09:54;;;;;;;2.30;1.60;;;;;;;25.09;44.16;99788.00;4954560;28;20560;-66
2022/06/02 09:12:22;;;;;;;8.27;2.13;;;;;;;25.08;44.03;99776.34;4937647;29;20415;-68
2022/06/02 09:15:25;;;;;;;7.22;1.63;;;;;;;25.05;44.10;99778.66;4954102;28;20039;-67
2022/06/02 09:18:16;;;;;;;4.03;1.70;;;;;;;24.98;44.51;99776.78;4961746;28;20390;-69
2022/06/02 09:21:20;;;;;;;3.13;1.98;;;;;;;24.95;44.50;99779.91;4955225;28;20038;-68
2022/06/02 09:24:05;;;;;;;3.35;1.67;;;;;;;24.93;45.12;99773.03;4920720;29;20062;-68
2022/06/02 09:27:15;;;;;;;3.72;1.95;;;;;;;24.91;45.00;99770.56;4954791;28;20474;-68
2022/06/02 09:29:53;;;;;;;3.47;2.13;;;;;;;24.88;45.39;99773.69;4947067;28;20053;-67
2022/06/02 09:32:45;;;;;;;2.67;1.60;;;;;;;24.87;45.46;99768.47;4963142;28;20278;-68
2022/06/02 09:35:49;;;;;;;5.03;2.30;;;;;;;24.85;45.45;99763.25;4954340;28;20065;-68
2022/06/02 09:38:42;;;;;;;4.95;1.92;;;;;;;24.85;45.48;99767.88;4954457;28;20082;-67
2022/06/02 09:42:05;;;;;;;3.60;2.20;;;;;;;24.83;45.72;99771.59;4935315;29;20115;-69
2022/06/02 09:45:09;;;;;;;3.67;2.15;;;;;;;24.82;45.37;99766.38;4913820;29;20032;-69
2022/06/02 09:47:59;;;;;;;3.92;2.33;;;;;;;24.81;45.45;99768.28;4914620;29;20063;-67
2022/06/02 09:51:02;;;;;;;2.75;2.05;;;;;;;24.82;45.69;99763.69;4938528;28;20046;-70
2022/06/02 09:53:49;;;;;;;9.88;2.38;;;;;;;24.82;45.83;99758.25;4954343;29;20534;-69
2022/06/02 09:56:36;;;;;;;4.45;2.55;;;;;;;24.83;45.50;99757.22;4952499;28;20482;-69
2022/06/02 09:59:31;;;;;;;4.00;2.28;;;;;;;24.83;45.89;99754.53;4951391;28;20498;-76
2022/06/02 10:02:27;;;;;;;4.82;2.28;;;;;;;24.83;45.60;99746.41;4951131;28;20129;-71
2022/06/02 10:05:13;;;;;;;9.38;3.03;;;;;;;24.83;45.78;99741.84;4954455;29;20106;-70
2022/06/02 10:07:56;;;;;;;5.75;2.92;;;;;;;24.82;46.00;99739.31;4954108;28;20117;-69
2022/06/02 10:10:57;;;;;;;3.70;2.50;;;;;;;24.81;45.90;99727.69;4954294;29;20039;-69
2022/06/02 10:13:41;;;;;;;3.47;2.45;;;;;;;24.78;46.21;99730.81;4954154;29;20443;-67
2022/06/02 10:16:57;;;;;;;4.43;2.30;;;;;;;24.78;46.04;99732.66;4953857;28;20123;-69
2022/06/02 10:19:45;;;;;;;3.42;2.17;;;;;;;24.76;45.96;99726.66;4922368;28;20043;-69
2022/06/02 10:22:25;;;;;;;6.57;3.35;;;;;;;24.76;46.31;99726.66;4951840;28;20031;-68
2022/06/02 10:25:21;;;;;;;4.65;2.33;;;;;;;24.75;45.94;99733.09;4951726;28;20133;-68
2022/06/02 10:28:19;;;;;;;7.55;2.30;;;;;;;24.75;45.84;99733.09;4953267;28;20039;-68
2022/06/02 10:31:16;;;;;;;5.45;2.63;;;;;;;24.74;46.15;99734.97;4960525;28;20059;-68
2022/06/02 10:34:06;;;;;;;8.90;3.60;;;;;;;24.75;46.34;99731.22;4963576;28;20055;-69
2022/06/02 10:36:53;;;;;;;6.18;2.47;;;;;;;24.76;46.47;99730.19;4954645;28;20031;-69
2022/06/02 10:39:44;;;;;;;4.55;2.63;;;;;;;24.76;46.41;99732.06;4958089;28;20043;-67
2022/06/02 10:42:28;;;;;;;;;;;;;;;24.68;46.59;99727.66;4956970;28;20035;-68
2022/06/02 10:45:12;;;;;;;4.53;2.55;;;;;;;24.71;46.73;99723.72;4953229;28;19918;-67
2022/06/02 10:47:55;;;;;;;5.07;2.35;;;;;;;24.75;46.53;99725.81;4954034;28;20027;-69
2022/06/02 10:50:39;;;;;;;3.65;2.40;;;;;;;24.77;46.68;99728.31;4954142;28;20038;-67
2022/06/02 10:53:29;;;;;;;7.50;3.10;;;;;;;24.78;46.88;99724.53;4956609;28;20035;-68
2022/06/02 10:56:16;;;;;;;9.50;2.83;;;;;;;24.80;46.56;99730.56;4956216;28;20046;-66
2022/06/02 10:59:19;;;;;;;10.00;2.80;;;;;;;24.81;46.50;99732.25;4945795;28;20095;-68
2022/06/02 11:01:50;;;;;;;10.55;3.10;;;;;;;24.79;46.58;99735.19;4956960;28;20081;-69
2022/06/02 11:04:34;;;;;;;;;;;;;;;24.73;46.77;99732.47;4957392;29;20481;-70
2022/06/02 11:07:32;;;;;;;7.38;3.17;;;;;;;24.73;47.04;99719.75;4957357;28;20005;-67
2022/06/02 11:10:17;;;;;;;4.40;2.88;;;;;;;24.74;47.11;99717.91;4957436;29;20031;-67
2022/06/02 11:13:29;;;;;;;4.60;2.92;;;;;;;24.74;47.28;99720.63;4956993;28;20049;-70
2022/06/02 11:16:10;;;;;;;6.32;3.35;;;;;;;24.74;46.99;99726.03;4957187;28;20031;-67
2022/06/02 11:19:14;;;;;;;6.63;3.17;;;;;;;24.73;47.35;99724.34;4957302;29;20043;-68
2022/06/02 11:22:09;;;;;;;6.63;3.05;;;;;;;24.73;46.91;99727.88;4897919;29;20040;-70
2022/06/02 11:24:52;;;;;;;7.65;3.38;;;;;;;24.71;47.17;99718.31;4956681;29;20180;-71
2022/06/02 11:27:33;;;;;;;10.18;3.03;;;;;;;24.72;47.07;99719.97;4957036;28;20030;-68
2022/06/02 11:30:18;;;;;;;9.27;3.60;;;;;;;24.72;47.30;99728.91;4956780;29;20028;-70
2022/06/02 11:33:14;;;;;;;5.20;2.70;;;;;;;24.71;47.32;99727.25;4956887;28;20039;-68
2022/06/02 11:36:20;;;;;;;12.68;3.33;;;;;;;24.69;46.96;99718.50;4956723;28;20089;-70
2022/06/02 11:39:04;;;;;;;10.95;3.15;;;;;;;24.68;47.45;99719.53;4956540;29;20039;-70
2022/06/02 11:41:56;;;;;;;7.50;2.60;;;;;;;24.68;47.06;99723.06;4956299;28;20039;-68
2022/06/02 11:44:44;;;;;;;6.45;3.00;;;;;;;24.68;47.47;99728.47;4957130;29;20031;-69
2022/06/02 11:47:33;;;;;;;7.55;2.80;;;;;;;24.68;47.02;99719.53;4956262;28;20046;-69
2022/06/02 11:50:13;;;;;;;7.25;2.35;;;;;;;24.65;46.91;99718.06;4956924;29;20078;-69
2022/06/02 11:53:00;;;;;;;4.50;2.55;;;;;;;24.67;47.14;99726.81;4957075;28;20413;-71
2022/06/02 11:55:49;;;;;;;5.47;2.53;;;;;;;24.65;46.95;99719.97;4956268;29;20035;-69
2022/06/02 11:58:54;;;;;;;3.40;2.45;;;;;;;24.64;46.97;99724.53;4956508;29;20027;-68
2022/06/02 12:01:42;;;;;;;5.22;2.30;;;;;;;24.62;46.89;99721.22;4956226;28;20558;-69
2022/06/02 12:04:50;;;;;;;5.05;2.80;;;;;;;24.63;47.07;99717.44;4956083;29;20422;-71
2022/06/02 12:07:22;;;;;;;7.45;2.80;;;;;;;24.63;46.79;99719.34;4917143;29;20422;-69
2022/06/02 12:10:34;;;;;;;5.05;2.55;;;;;;;24.65;46.64;99720.78;4955948;29;20542;-70
2022/06/02 12:13:20;;;;;;;6.13;3.63;;;;;;;24.63;46.60;99712.03;4913598;29;20054;-70
2022/06/02 12:16:10;;;;;;;7.45;2.72;;;;;;;24.62;46.84;99710.41;4956201;28;20054;-69
2022/06/02 12:18:44;;;;;;;6.77;3.60;;;;;;;24.64;46.69;99712.88;4955757;29;20035;-70
2022/06/02 12:21:18;;;;;;;6.80;3.53;;;;;;;24.64;46.91;99711.00;4955953;28;20047;-69
2022/06/02 12:24:05;;;;;;;4.80;3.30;;;;;;;24.65;46.78;99709.13;4955868;29;20034;-70
2022/06/02 12:26:42;;;;;;;9.38;4.47;;;;;;;24.67;47.25;99710.59;4955976;28;20398;-68
2022/06/02 12:29:24;;;;;;;14.05;6.03;;;;;;;24.67;46.93;99705.16;4955935;29;20082;-69
2022/06/02 12:31:59;;;;;;;21.63;7.50;;;;;;;24.68;46.98;99703.31;4955469;28;20114;-69
2022/06/02 12:34:55;;;;;;;29.90;10.93;;;;;;;24.68;47.18;99701.44;4955593;29;20054;-70
2022/06/02 12:37:38;;;;;;;33.70;13.65;;;;;;;24.68;47.06;99701.44;4955853;28;20061;-68
2022/06/02 12:40:13;;;;;;;48.67;16.83;;;;;;;24.68;47.52;99697.91;4955402;29;20487;-69
2022/06/02 12:43:18;;;;;;;43.35;14.73;;;;;;;24.71;47.24;99704.78;4955639;28;20042;-69
2022/06/02 12:46:07;;;;;;;44.65;17.77;;;;;;;24.70;47.43;99703.13;4955324;28;20406;-69
2022/06/02 12:48:46;;;;;;;43.55;15.82;;;;;;;24.72;47.43;99709.16;4955347;29;20035;-69
2022/06/02 12:51:24;;;;;;;44.45;15.82;;;;;;;24.71;47.82;99705.59;4954844;28;20551;-69
2022/06/02 12:54:17;;;;;;;39.58;13.68;;;;;;;24.73;47.83;99694.59;4955229;29;20047;-68
2022/06/02 12:57:10;;;;;;;34.50;12.00;;;;;;;24.72;47.94;99696.44;4955359;28;20130;-69
2022/06/02 12:59:42;;;;;;;33.45;11.20;;;;;;;24.71;48.22;99702.09;4955394;29;20043;-69
2022/06/02 13:02:18;;;;;;;29.60;10.75;;;;;;;24.71;47.99;99694.78;4954796;28;20085;-70
2022/06/02 13:05:05;;;;;;;25.05;10.40;;;;;;;24.72;47.88;99684.81;4955389;29;20094;-69
2022/06/02 13:08:07;;;;;;;25.75;9.23;;;;;;;24.71;48.00;99692.09;4954979;28;20082;-70
2022/06/02 13:10:56;;;;;;;22.73;8.02;;;;;;;24.71;48.06;99686.66;4955160;28;20039;-69